sensor_id;sensor_type;location;lat;lon;timestamp;P1;durP1;ratioP1;P2;durP2;ratioP2
54263;SDS011;40178;53.042;6.406;2023-01-08T00:00:49;4.50;;;1.90;;
54263;SDS011;40178;53.042;6.406;2023-01-08T00:03:15;5.80;;;2.63;;
54263;SDS011;40178;53.042;6.406;2023-01-08T00:05:40;5.43;;;2.53;;
54263;SDS011;40178;53.042;6.406;2023-01-08T00:08:06;5.80;;;2.28;;
54263;SDS011;40178;53.042;6.406;2023-01-08T00:10:33;6.43;;;2.35;;
54263;SDS011;40178;53.042;6.406;2023-01-08T00:12:59;5.85;;;2.50;;
54263;SDS011;40178;53.042;6.406;2023-01-08T00:15:25;5.65;;;2.47;;
54263;SDS011;40178;53.042;6.406;2023-01-08T00:17:52;4.53;;;2.22;;
54263;SDS011;40178;53.042;6.406;2023-01-08T00:20:17;4.72;;;2.20;;
54263;SDS011;40178;53.042;6.406;2023-01-08T00:22:43;5.13;;;2.35;;
54263;SDS011;40178;53.042;6.406;2023-01-08T00:25:11;5.55;;;2.58;;
54263;SDS011;40178;53.042;6.406;2023-01-08T00:27:37;5.50;;;2.30;;
54263;SDS011;40178;53.042;6.406;2023-01-08T00:30:03;4.85;;;2.50;;
54263;SDS011;40178;53.042;6.406;2023-01-08T00:32:29;6.72;;;2.42;;
54263;SDS011;40178;53.042;6.406;2023-01-08T00:34:54;7.38;;;2.75;;
54263;SDS011;40178;53.042;6.406;2023-01-08T00:37:20;5.45;;;2.38;;
54263;SDS011;40178;53.042;6.406;2023-01-08T00:39:45;6.50;;;2.60;;
54263;SDS011;40178;53.042;6.406;2023-01-08T00:42:11;5.65;;;2.33;;
54263;SDS011;40178;53.042;6.406;2023-01-08T00:44:37;4.85;;;2.40;;
54263;SDS011;40178;53.042;6.406;2023-01-08T00:47:02;4.80;;;2.20;;
54263;SDS011;40178;53.042;6.406;2023-01-08T00:49:28;7.55;;;2.83;;
54263;SDS011;40178;53.042;6.406;2023-01-08T00:51:54;6.70;;;2.60;;
54263;SDS011;40178;53.042;6.406;2023-01-08T00:54:19;7.25;;;2.33;;
54263;SDS011;40178;53.042;6.406;2023-01-08T00:56:45;6.05;;;2.33;;
54263;SDS011;40178;53.042;6.406;2023-01-08T00:59:11;5.47;;;2.33;;
54263;SDS011;40178;53.042;6.406;2023-01-08T01:01:36;5.50;;;1.98;;
54263;SDS011;40178;53.042;6.406;2023-01-08T01:04:02;5.13;;;2.03;;
54263;SDS011;40178;53.042;6.406;2023-01-08T01:06:28;5.80;;;2.22;;
54263;SDS011;40178;53.042;6.406;2023-01-08T01:08:54;4.35;;;1.95;;
54263;SDS011;40178;53.042;6.406;2023-01-08T01:11:25;5.18;;;2.10;;
54263;SDS011;40178;53.042;6.406;2023-01-08T01:13:53;6.45;;;2.50;;
54263;SDS011;40178;53.042;6.406;2023-01-08T01:16:19;5.05;;;2.45;;
54263;SDS011;40178;53.042;6.406;2023-01-08T01:18:46;5.18;;;2.10;;
54263;SDS011;40178;53.042;6.406;2023-01-08T01:21:17;5.18;;;2.10;;
54263;SDS011;40178;53.042;6.406;2023-01-08T01:23:52;6.18;;;2.72;;
54263;SDS011;40178;53.042;6.406;2023-01-08T01:26:19;5.22;;;2.30;;
54263;SDS011;40178;53.042;6.406;2023-01-08T01:28:46;5.72;;;2.30;;
54263;SDS011;40178;53.042;6.406;2023-01-08T01:31:13;5.63;;;2.50;;
54263;SDS011;40178;53.042;6.406;2023-01-08T01:33:39;9.30;;;2.70;;
54263;SDS011;40178;53.042;6.406;2023-01-08T01:36:06;5.32;;;1.98;;
54263;SDS011;40178;53.042;6.406;2023-01-08T01:38:31;5.30;;;2.42;;
54263;SDS011;40178;53.042;6.406;2023-01-08T01:40:58;5.50;;;1.80;;
54263;SDS011;40178;53.042;6.406;2023-01-08T01:43:33;4.35;;;1.73;;
54263;SDS011;40178;53.042;6.406;2023-01-08T01:46:09;5.72;;;1.80;;
54263;SDS011;40178;53.042;6.406;2023-01-08T01:48:44;5.32;;;1.73;;
54263;SDS011;40178;53.042;6.406;2023-01-08T01:51:12;4.57;;;1.85;;
54263;SDS011;40178;53.042;6.406;2023-01-08T01:53:38;5.00;;;1.27;;
54263;SDS011;40178;53.042;6.406;2023-01-08T01:56:06;5.75;;;1.48;;
54263;SDS011;40178;53.042;6.406;2023-01-08T01:58:32;3.15;;;1.10;;
54263;SDS011;40178;53.042;6.406;2023-01-08T02:01:03;6.43;;;1.50;;
54263;SDS011;40178;53.042;6.406;2023-01-08T02:03:34;7.20;;;1.25;;
54263;SDS011;40178;53.042;6.406;2023-01-08T02:08:43;4.88;;;1.00;;
54263;SDS011;40178;53.042;6.406;2023-01-08T02:11:43;3.72;;;1.10;;
54263;SDS011;40178;53.042;6.406;2023-01-08T02:14:25;4.47;;;1.10;;
54263;SDS011;40178;53.042;6.406;2023-01-08T02:17:00;6.95;;;1.10;;
54263;SDS011;40178;53.042;6.406;2023-01-08T02:19:35;6.30;;;1.20;;
54263;SDS011;40178;53.042;6.406;2023-01-08T02:25:01;6.03;;;1.27;;
54263;SDS011;40178;53.042;6.406;2023-01-08T02:27:32;5.10;;;0.80;;
54263;SDS011;40178;53.042;6.406;2023-01-08T02:29:59;4.97;;;1.08;;
54263;SDS011;40178;53.042;6.406;2023-01-08T02:32:27;8.27;;;1.10;;
54263;SDS011;40178;53.042;6.406;2023-01-08T02:34:58;9.60;;;1.23;;
54263;SDS011;40178;53.042;6.406;2023-01-08T02:37:24;9.93;;;1.42;;
54263;SDS011;40178;53.042;6.406;2023-01-08T02:39:53;7.53;;;1.75;;
54263;SDS011;40178;53.042;6.406;2023-01-08T02:50:20;6.95;;;1.38;;
54263;SDS011;40178;53.042;6.406;2023-01-08T02:55:40;11.10;;;1.85;;
54263;SDS011;40178;53.042;6.406;2023-01-08T02:58:09;5.47;;;1.52;;
54263;SDS011;40178;53.042;6.406;2023-01-08T03:00:36;5.95;;;1.10;;
54263;SDS011;40178;53.042;6.406;2023-01-08T03:03:06;4.10;;;1.23;;
54263;SDS011;40178;53.042;6.406;2023-01-08T03:05:38;6.05;;;1.50;;
54263;SDS011;40178;53.042;6.406;2023-01-08T03:08:06;9.60;;;1.90;;
54263;SDS011;40178;53.042;6.406;2023-01-08T03:10:32;9.68;;;1.40;;
54263;SDS011;40178;53.042;6.406;2023-01-08T03:13:02;9.88;;;2.08;;
54263;SDS011;40178;53.042;6.406;2023-01-08T03:15:36;6.10;;;1.55;;
54263;SDS011;40178;53.042;6.406;2023-01-08T03:18:18;6.53;;;1.20;;
54263;SDS011;40178;53.042;6.406;2023-01-08T03:20:46;4.95;;;1.35;;
54263;SDS011;40178;53.042;6.406;2023-01-08T03:23:13;6.63;;;1.17;;
54263;SDS011;40178;53.042;6.406;2023-01-08T03:25:42;9.48;;;1.20;;
54263;SDS011;40178;53.042;6.406;2023-01-08T03:28:12;6.75;;;1.52;;
54263;SDS011;40178;53.042;6.406;2023-01-08T03:30:44;4.78;;;1.35;;
54263;SDS011;40178;53.042;6.406;2023-01-08T03:33:11;4.93;;;1.00;;
54263;SDS011;40178;53.042;6.406;2023-01-08T03:35:39;8.15;;;1.80;;
54263;SDS011;40178;53.042;6.406;2023-01-08T03:38:10;6.82;;;1.55;;
54263;SDS011;40178;53.042;6.406;2023-01-08T03:40:44;7.05;;;1.10;;
54263;SDS011;40178;53.042;6.406;2023-01-08T03:43:14;5.95;;;1.38;;
54263;SDS011;40178;53.042;6.406;2023-01-08T03:45:42;6.65;;;1.52;;
54263;SDS011;40178;53.042;6.406;2023-01-08T03:48:14;4.72;;;1.50;;
54263;SDS011;40178;53.042;6.406;2023-01-08T03:50:42;9.27;;;1.60;;
54263;SDS011;40178;53.042;6.406;2023-01-08T03:53:08;6.28;;;1.63;;
54263;SDS011;40178;53.042;6.406;2023-01-08T03:55:33;7.10;;;2.17;;
54263;SDS011;40178;53.042;6.406;2023-01-08T03:57:59;7.03;;;1.17;;
54263;SDS011;40178;53.042;6.406;2023-01-08T04:00:25;7.13;;;1.60;;
54263;SDS011;40178;53.042;6.406;2023-01-08T04:02:50;4.78;;;1.35;;
54263;SDS011;40178;53.042;6.406;2023-01-08T04:05:16;6.88;;;1.83;;
54263;SDS011;40178;53.042;6.406;2023-01-08T04:07:42;6.30;;;1.73;;
54263;SDS011;40178;53.042;6.406;2023-01-08T04:10:07;10.25;;;2.60;;
54263;SDS011;40178;53.042;6.406;2023-01-08T04:12:33;9.55;;;2.15;;
54263;SDS011;40178;53.042;6.406;2023-01-08T04:14:59;10.18;;;1.85;;
54263;SDS011;40178;53.042;6.406;2023-01-08T04:17:24;8.25;;;1.90;;
54263;SDS011;40178;53.042;6.406;2023-01-08T04:19:50;6.95;;;1.88;;
54263;SDS011;40178;53.042;6.406;2023-01-08T04:22:15;6.88;;;2.08;;
54263;SDS011;40178;53.042;6.406;2023-01-08T04:24:41;8.95;;;2.25;;
54263;SDS011;40178;53.042;6.406;2023-01-08T04:27:07;6.32;;;2.15;;
54263;SDS011;40178;53.042;6.406;2023-01-08T04:29:32;5.95;;;1.90;;
54263;SDS011;40178;53.042;6.406;2023-01-08T04:31:58;7.05;;;2.20;;
54263;SDS011;40178;53.042;6.406;2023-01-08T04:34:24;6.32;;;2.17;;
54263;SDS011;40178;53.042;6.406;2023-01-08T04:36:50;7.50;;;2.10;;
54263;SDS011;40178;53.042;6.406;2023-01-08T04:39:15;8.32;;;2.50;;
54263;SDS011;40178;53.042;6.406;2023-01-08T04:41:41;6.47;;;2.13;;
54263;SDS011;40178;53.042;6.406;2023-01-08T04:44:07;8.48;;;2.33;;
54263;SDS011;40178;53.042;6.406;2023-01-08T04:46:33;6.93;;;2.25;;
54263;SDS011;40178;53.042;6.406;2023-01-08T04:48:58;7.90;;;2.70;;
54263;SDS011;40178;53.042;6.406;2023-01-08T04:51:24;6.50;;;2.30;;
54263;SDS011;40178;53.042;6.406;2023-01-08T04:53:50;5.80;;;2.30;;
54263;SDS011;40178;53.042;6.406;2023-01-08T04:56:16;8.32;;;2.30;;
54263;SDS011;40178;53.042;6.406;2023-01-08T04:58:41;6.05;;;1.88;;
54263;SDS011;40178;53.042;6.406;2023-01-08T05:01:17;5.97;;;2.55;;
54263;SDS011;40178;53.042;6.406;2023-01-08T05:03:45;8.55;;;2.20;;
54263;SDS011;40178;53.042;6.406;2023-01-08T05:06:11;6.13;;;2.15;;
54263;SDS011;40178;53.042;6.406;2023-01-08T05:08:36;6.35;;;2.00;;
54263;SDS011;40178;53.042;6.406;2023-01-08T05:11:02;9.13;;;2.55;;
54263;SDS011;40178;53.042;6.406;2023-01-08T05:13:28;5.68;;;1.92;;
54263;SDS011;40178;53.042;6.406;2023-01-08T05:15:56;4.75;;;1.90;;
54263;SDS011;40178;53.042;6.406;2023-01-08T05:18:23;4.68;;;1.90;;
54263;SDS011;40178;53.042;6.406;2023-01-08T05:20:48;4.45;;;1.70;;
54263;SDS011;40178;53.042;6.406;2023-01-08T05:23:14;6.65;;;2.20;;
54263;SDS011;40178;53.042;6.406;2023-01-08T05:25:39;7.75;;;1.95;;
54263;SDS011;40178;53.042;6.406;2023-01-08T05:28:05;6.22;;;1.83;;
54263;SDS011;40178;53.042;6.406;2023-01-08T05:30:30;5.78;;;2.00;;
54263;SDS011;40178;53.042;6.406;2023-01-08T05:32:56;9.40;;;2.10;;
54263;SDS011;40178;53.042;6.406;2023-01-08T05:35:21;4.35;;;1.70;;
54263;SDS011;40178;53.042;6.406;2023-01-08T05:37:47;5.38;;;1.73;;
54263;SDS011;40178;53.042;6.406;2023-01-08T05:40:13;6.30;;;1.70;;
54263;SDS011;40178;53.042;6.406;2023-01-08T05:42:38;7.38;;;1.90;;
54263;SDS011;40178;53.042;6.406;2023-01-08T05:45:04;4.60;;;1.67;;
54263;SDS011;40178;53.042;6.406;2023-01-08T05:47:32;7.03;;;1.70;;
54263;SDS011;40178;53.042;6.406;2023-01-08T05:49:58;5.10;;;1.70;;
54263;SDS011;40178;53.042;6.406;2023-01-08T05:52:23;3.95;;;1.40;;
54263;SDS011;40178;53.042;6.406;2023-01-08T05:54:49;4.28;;;1.67;;
54263;SDS011;40178;53.042;6.406;2023-01-08T05:57:15;5.03;;;1.45;;
54263;SDS011;40178;53.042;6.406;2023-01-08T05:59:40;4.13;;;1.50;;
54263;SDS011;40178;53.042;6.406;2023-01-08T06:02:06;4.88;;;1.33;;
54263;SDS011;40178;53.042;6.406;2023-01-08T06:04:33;5.10;;;1.73;;
54263;SDS011;40178;53.042;6.406;2023-01-08T06:06:58;6.10;;;1.80;;
54263;SDS011;40178;53.042;6.406;2023-01-08T06:09:24;5.28;;;1.73;;
54263;SDS011;40178;53.042;6.406;2023-01-08T06:11:49;6.18;;;2.00;;
54263;SDS011;40178;53.042;6.406;2023-01-08T06:14:16;6.50;;;2.03;;
54263;SDS011;40178;53.042;6.406;2023-01-08T06:16:43;7.20;;;2.33;;
54263;SDS011;40178;53.042;6.406;2023-01-08T06:19:09;5.43;;;1.90;;
54263;SDS011;40178;53.042;6.406;2023-01-08T06:21:35;6.65;;;2.38;;
54263;SDS011;40178;53.042;6.406;2023-01-08T06:24:01;5.60;;;2.00;;
54263;SDS011;40178;53.042;6.406;2023-01-08T06:26:26;7.38;;;2.25;;
54263;SDS011;40178;53.042;6.406;2023-01-08T06:28:52;6.28;;;2.50;;
54263;SDS011;40178;53.042;6.406;2023-01-08T06:31:18;8.50;;;2.40;;
54263;SDS011;40178;53.042;6.406;2023-01-08T06:33:43;6.55;;;2.25;;
54263;SDS011;40178;53.042;6.406;2023-01-08T06:36:09;6.15;;;2.10;;
54263;SDS011;40178;53.042;6.406;2023-01-08T06:38:35;6.30;;;2.17;;
54263;SDS011;40178;53.042;6.406;2023-01-08T06:41:05;8.80;;;2.63;;
54263;SDS011;40178;53.042;6.406;2023-01-08T06:43:33;6.28;;;2.00;;
54263;SDS011;40178;53.042;6.406;2023-01-08T06:45:59;5.25;;;2.30;;
54263;SDS011;40178;53.042;6.406;2023-01-08T06:48:24;7.57;;;2.50;;
54263;SDS011;40178;53.042;6.406;2023-01-08T06:50:50;8.45;;;2.33;;
54263;SDS011;40178;53.042;6.406;2023-01-08T06:53:17;7.25;;;2.60;;
54263;SDS011;40178;53.042;6.406;2023-01-08T06:55:42;6.60;;;2.20;;
54263;SDS011;40178;53.042;6.406;2023-01-08T06:58:08;6.60;;;2.85;;
54263;SDS011;40178;53.042;6.406;2023-01-08T07:00:36;5.10;;;1.98;;
54263;SDS011;40178;53.042;6.406;2023-01-08T07:03:02;6.88;;;2.13;;
54263;SDS011;40178;53.042;6.406;2023-01-08T07:05:28;5.28;;;1.95;;
54263;SDS011;40178;53.042;6.406;2023-01-08T07:07:53;5.65;;;2.00;;
54263;SDS011;40178;53.042;6.406;2023-01-08T07:10:19;5.18;;;2.17;;
54263;SDS011;40178;53.042;6.406;2023-01-08T07:12:45;8.00;;;1.95;;
54263;SDS011;40178;53.042;6.406;2023-01-08T07:15:11;6.32;;;1.85;;
54263;SDS011;40178;53.042;6.406;2023-01-08T07:17:37;5.63;;;1.92;;
54263;SDS011;40178;53.042;6.406;2023-01-08T07:20:03;7.68;;;2.03;;
54263;SDS011;40178;53.042;6.406;2023-01-08T07:22:28;6.32;;;1.55;;
54263;SDS011;40178;53.042;6.406;2023-01-08T07:24:54;5.10;;;1.80;;
54263;SDS011;40178;53.042;6.406;2023-01-08T07:27:20;6.32;;;1.60;;
54263;SDS011;40178;53.042;6.406;2023-01-08T07:29:45;5.18;;;1.67;;
54263;SDS011;40178;53.042;6.406;2023-01-08T07:32:11;4.60;;;1.73;;
54263;SDS011;40178;53.042;6.406;2023-01-08T07:34:36;8.15;;;1.83;;
54263;SDS011;40178;53.042;6.406;2023-01-08T07:37:02;8.10;;;2.00;;
54263;SDS011;40178;53.042;6.406;2023-01-08T07:39:28;6.05;;;1.55;;
54263;SDS011;40178;53.042;6.406;2023-01-08T07:41:53;4.93;;;1.70;;
54263;SDS011;40178;53.042;6.406;2023-01-08T07:44:19;5.60;;;2.08;;
54263;SDS011;40178;53.042;6.406;2023-01-08T07:46:45;6.25;;;2.15;;
54263;SDS011;40178;53.042;6.406;2023-01-08T07:52:00;5.75;;;2.22;;
54263;SDS011;40178;53.042;6.406;2023-01-08T07:54:25;4.90;;;1.98;;
54263;SDS011;40178;53.042;6.406;2023-01-08T07:56:53;7.85;;;3.15;;
54263;SDS011;40178;53.042;6.406;2023-01-08T07:59:18;9.73;;;2.20;;
54263;SDS011;40178;53.042;6.406;2023-01-08T08:01:44;8.75;;;2.38;;
54263;SDS011;40178;53.042;6.406;2023-01-08T08:04:10;8.38;;;2.60;;
54263;SDS011;40178;53.042;6.406;2023-01-08T08:06:38;8.77;;;1.90;;
54263;SDS011;40178;53.042;6.406;2023-01-08T08:09:03;7.43;;;2.35;;
54263;SDS011;40178;53.042;6.406;2023-01-08T08:11:29;9.20;;;2.10;;
54263;SDS011;40178;53.042;6.406;2023-01-08T08:13:54;6.88;;;1.80;;
54263;SDS011;40178;53.042;6.406;2023-01-08T08:16:20;5.38;;;1.90;;
54263;SDS011;40178;53.042;6.406;2023-01-08T08:18:45;8.30;;;1.50;;
54263;SDS011;40178;53.042;6.406;2023-01-08T08:21:11;6.38;;;1.70;;
54263;SDS011;40178;53.042;6.406;2023-01-08T08:23:37;6.38;;;1.95;;
54263;SDS011;40178;53.042;6.406;2023-01-08T08:26:03;9.98;;;1.65;;
54263;SDS011;40178;53.042;6.406;2023-01-08T08:28:29;6.00;;;1.63;;
54263;SDS011;40178;53.042;6.406;2023-01-08T08:30:54;6.18;;;1.70;;
54263;SDS011;40178;53.042;6.406;2023-01-08T08:33:20;6.68;;;1.88;;
54263;SDS011;40178;53.042;6.406;2023-01-08T08:35:49;6.63;;;1.48;;
54263;SDS011;40178;53.042;6.406;2023-01-08T08:38:17;6.07;;;1.73;;
54263;SDS011;40178;53.042;6.406;2023-01-08T08:40:43;5.07;;;1.77;;
54263;SDS011;40178;53.042;6.406;2023-01-08T08:43:09;5.03;;;1.77;;
54263;SDS011;40178;53.042;6.406;2023-01-08T08:45:34;6.65;;;1.52;;
54263;SDS011;40178;53.042;6.406;2023-01-08T08:48:00;8.00;;;2.08;;
54263;SDS011;40178;53.042;6.406;2023-01-08T08:50:26;6.13;;;1.30;;
54263;SDS011;40178;53.042;6.406;2023-01-08T08:52:57;4.70;;;1.27;;
54263;SDS011;40178;53.042;6.406;2023-01-08T08:55:24;6.30;;;1.80;;
54263;SDS011;40178;53.042;6.406;2023-01-08T08:57:49;7.95;;;2.03;;
54263;SDS011;40178;53.042;6.406;2023-01-08T09:00:15;6.65;;;1.88;;
54263;SDS011;40178;53.042;6.406;2023-01-08T09:02:41;4.22;;;1.35;;
54263;SDS011;40178;53.042;6.406;2023-01-08T09:05:07;5.55;;;1.55;;
54263;SDS011;40178;53.042;6.406;2023-01-08T09:07:32;6.03;;;1.70;;
54263;SDS011;40178;53.042;6.406;2023-01-08T09:09:58;7.93;;;1.70;;
54263;SDS011;40178;53.042;6.406;2023-01-08T09:12:24;8.45;;;1.52;;
54263;SDS011;40178;53.042;6.406;2023-01-08T09:14:49;6.75;;;2.08;;
54263;SDS011;40178;53.042;6.406;2023-01-08T09:17:15;6.97;;;1.75;;
54263;SDS011;40178;53.042;6.406;2023-01-08T09:19:42;5.78;;;1.67;;
54263;SDS011;40178;53.042;6.406;2023-01-08T09:22:07;10.30;;;1.83;;
54263;SDS011;40178;53.042;6.406;2023-01-08T09:24:33;5.97;;;1.83;;
54263;SDS011;40178;53.042;6.406;2023-01-08T09:26:59;6.18;;;1.35;;
54263;SDS011;40178;53.042;6.406;2023-01-08T09:29:24;5.15;;;1.00;;
54263;SDS011;40178;53.042;6.406;2023-01-08T09:31:50;6.55;;;1.13;;
54263;SDS011;40178;53.042;6.406;2023-01-08T09:34:16;5.13;;;1.30;;
54263;SDS011;40178;53.042;6.406;2023-01-08T09:36:41;6.90;;;1.42;;
54263;SDS011;40178;53.042;6.406;2023-01-08T09:39:07;6.45;;;1.13;;
54263;SDS011;40178;53.042;6.406;2023-01-08T09:41:34;6.07;;;1.00;;
54263;SDS011;40178;53.042;6.406;2023-01-08T09:44:04;5.03;;;1.17;;
54263;SDS011;40178;53.042;6.406;2023-01-08T09:46:31;3.63;;;1.02;;
54263;SDS011;40178;53.042;6.406;2023-01-08T09:49:02;6.47;;;1.20;;
54263;SDS011;40178;53.042;6.406;2023-01-08T09:51:32;3.97;;;0.77;;
54263;SDS011;40178;53.042;6.406;2023-01-08T09:53:59;10.52;;;1.20;;
54263;SDS011;40178;53.042;6.406;2023-01-08T09:56:28;3.85;;;0.82;;
54263;SDS011;40178;53.042;6.406;2023-01-08T09:58:55;8.75;;;1.50;;
54263;SDS011;40178;53.042;6.406;2023-01-08T10:01:25;5.80;;;1.13;;
54263;SDS011;40178;53.042;6.406;2023-01-08T10:07:26;5.72;;;1.08;;
54263;SDS011;40178;53.042;6.406;2023-01-08T10:09:45;6.90;;;1.63;;
54263;SDS011;40178;53.042;6.406;2023-01-08T10:12:23;5.43;;;1.40;;
54263;SDS011;40178;53.042;6.406;2023-01-08T10:14:51;5.32;;;1.10;;
54263;SDS011;40178;53.042;6.406;2023-01-08T10:20:09;7.25;;;1.23;;
54263;SDS011;40178;53.042;6.406;2023-01-08T10:22:35;7.63;;;1.13;;
54263;SDS011;40178;53.042;6.406;2023-01-08T10:25:05;9.52;;;1.33;;
54263;SDS011;40178;53.042;6.406;2023-01-08T10:27:35;6.68;;;1.00;;
54263;SDS011;40178;53.042;6.406;2023-01-08T10:30:13;8.68;;;1.58;;
54263;SDS011;40178;53.042;6.406;2023-01-08T10:32:44;8.68;;;1.00;;
54263;SDS011;40178;53.042;6.406;2023-01-08T10:35:15;5.50;;;0.90;;
54263;SDS011;40178;53.042;6.406;2023-01-08T10:37:42;5.53;;;1.30;;
54263;SDS011;40178;53.042;6.406;2023-01-08T10:40:27;5.38;;;0.77;;
54263;SDS011;40178;53.042;6.406;2023-01-08T10:43:04;5.22;;;1.15;;
54263;SDS011;40178;53.042;6.406;2023-01-08T10:45:32;12.60;;;2.22;;
54263;SDS011;40178;53.042;6.406;2023-01-08T10:47:59;12.27;;;1.52;;
54263;SDS011;40178;53.042;6.406;2023-01-08T10:50:29;5.97;;;1.95;;
54263;SDS011;40178;53.042;6.406;2023-01-08T10:53:03;5.35;;;1.05;;
54263;SDS011;40178;53.042;6.406;2023-01-08T10:55:34;13.88;;;1.33;;
54263;SDS011;40178;53.042;6.406;2023-01-08T11:00:33;6.50;;;1.15;;
54263;SDS011;40178;53.042;6.406;2023-01-08T11:03:00;8.05;;;1.23;;
54263;SDS011;40178;53.042;6.406;2023-01-08T11:05:30;10.80;;;1.55;;
54263;SDS011;40178;53.042;6.406;2023-01-08T11:07:58;8.32;;;1.67;;
54263;SDS011;40178;53.042;6.406;2023-01-08T11:10:25;8.02;;;1.70;;
54263;SDS011;40178;53.042;6.406;2023-01-08T11:12:53;8.55;;;1.63;;
54263;SDS011;40178;53.042;6.406;2023-01-08T11:17:46;11.40;;;1.88;;
54263;SDS011;40178;53.042;6.406;2023-01-08T11:20:19;8.27;;;1.40;;
54263;SDS011;40178;53.042;6.406;2023-01-08T11:23:03;8.55;;;1.45;;
54263;SDS011;40178;53.042;6.406;2023-01-08T11:25:59;6.57;;;1.00;;
54263;SDS011;40178;53.042;6.406;2023-01-08T11:28:39;7.45;;;1.20;;
54263;SDS011;40178;53.042;6.406;2023-01-08T11:31:28;6.15;;;0.90;;
54263;SDS011;40178;53.042;6.406;2023-01-08T11:34:15;11.95;;;2.10;;
54263;SDS011;40178;53.042;6.406;2023-01-08T11:36:48;6.63;;;1.10;;
54263;SDS011;40178;53.042;6.406;2023-01-08T11:39:17;7.47;;;1.55;;
54263;SDS011;40178;53.042;6.406;2023-01-08T11:50:11;6.60;;;1.55;;
54263;SDS011;40178;53.042;6.406;2023-01-08T12:03:39;9.63;;;2.00;;
54263;SDS011;40178;53.042;6.406;2023-01-08T12:06:33;7.38;;;1.90;;
54263;SDS011;40178;53.042;6.406;2023-01-08T12:09:17;6.78;;;1.98;;
54263;SDS011;40178;53.042;6.406;2023-01-08T12:14:49;6.05;;;2.00;;
54263;SDS011;40178;53.042;6.406;2023-01-08T12:22:41;6.72;;;1.75;;
54263;SDS011;40178;53.042;6.406;2023-01-08T12:25:25;8.52;;;2.00;;
54263;SDS011;40178;53.042;6.406;2023-01-08T12:28:21;9.30;;;2.08;;
54263;SDS011;40178;53.042;6.406;2023-01-08T12:35:07;13.90;;;2.00;;
54263;SDS011;40178;53.042;6.406;2023-01-08T12:37:12;6.63;;;1.38;;
54263;SDS011;40178;53.042;6.406;2023-01-08T12:39:52;9.05;;;1.85;;
54263;SDS011;40178;53.042;6.406;2023-01-08T12:42:32;5.15;;;1.70;;
54263;SDS011;40178;53.042;6.406;2023-01-08T12:45:02;10.18;;;1.88;;
54263;SDS011;40178;53.042;6.406;2023-01-08T12:47:31;4.70;;;1.52;;
54263;SDS011;40178;53.042;6.406;2023-01-08T12:50:08;7.82;;;1.80;;
54263;SDS011;40178;53.042;6.406;2023-01-08T12:59:04;7.55;;;1.70;;
54263;SDS011;40178;53.042;6.406;2023-01-08T13:04:05;9.05;;;1.85;;
54263;SDS011;40178;53.042;6.406;2023-01-08T13:06:34;6.05;;;1.60;;
54263;SDS011;40178;53.042;6.406;2023-01-08T13:09:00;9.75;;;1.85;;
54263;SDS011;40178;53.042;6.406;2023-01-08T13:11:35;6.15;;;1.65;;
54263;SDS011;40178;53.042;6.406;2023-01-08T13:14:03;9.45;;;1.63;;
54263;SDS011;40178;53.042;6.406;2023-01-08T13:17:14;11.45;;;1.85;;
54263;SDS011;40178;53.042;6.406;2023-01-08T13:19:33;8.77;;;1.42;;
54263;SDS011;40178;53.042;6.406;2023-01-08T13:22:04;7.72;;;1.13;;
54263;SDS011;40178;53.042;6.406;2023-01-08T13:24:47;8.05;;;1.70;;
54263;SDS011;40178;53.042;6.406;2023-01-08T13:29:45;6.38;;;1.38;;
54263;SDS011;40178;53.042;6.406;2023-01-08T13:32:26;9.15;;;2.33;;
54263;SDS011;40178;53.042;6.406;2023-01-08T13:37:45;9.00;;;1.80;;
54263;SDS011;40178;53.042;6.406;2023-01-08T13:43:14;7.63;;;1.20;;
54263;SDS011;40178;53.042;6.406;2023-01-08T13:46:12;5.93;;;1.52;;
54263;SDS011;40178;53.042;6.406;2023-01-08T13:49:15;8.07;;;1.20;;
54263;SDS011;40178;53.042;6.406;2023-01-08T13:51:47;8.30;;;1.10;;
54263;SDS011;40178;53.042;6.406;2023-01-08T13:56:39;9.35;;;1.60;;
54263;SDS011;40178;53.042;6.406;2023-01-08T13:59:06;6.47;;;1.20;;
54263;SDS011;40178;53.042;6.406;2023-01-08T14:01:51;6.72;;;1.20;;
54263;SDS011;40178;53.042;6.406;2023-01-08T14:04:21;6.65;;;1.20;;
54263;SDS011;40178;53.042;6.406;2023-01-08T14:06:47;5.55;;;1.13;;
54263;SDS011;40178;53.042;6.406;2023-01-08T14:09:23;7.75;;;1.30;;
54263;SDS011;40178;53.042;6.406;2023-01-08T14:11:51;5.07;;;1.23;;
54263;SDS011;40178;53.042;6.406;2023-01-08T14:14:20;6.60;;;1.20;;
54263;SDS011;40178;53.042;6.406;2023-01-08T14:16:47;3.33;;;1.05;;
54263;SDS011;40178;53.042;6.406;2023-01-08T14:19:15;6.50;;;0.95;;
54263;SDS011;40178;53.042;6.406;2023-01-08T14:21:47;5.88;;;1.33;;
54263;SDS011;40178;53.042;6.406;2023-01-08T14:24:15;5.22;;;1.60;;
54263;SDS011;40178;53.042;6.406;2023-01-08T14:26:42;4.38;;;0.80;;
54263;SDS011;40178;53.042;6.406;2023-01-08T14:29:15;4.03;;;0.93;;
54263;SDS011;40178;53.042;6.406;2023-01-08T14:31:47;4.60;;;0.98;;
54263;SDS011;40178;53.042;6.406;2023-01-08T14:34:17;4.10;;;0.90;;
54263;SDS011;40178;53.042;6.406;2023-01-08T14:36:48;5.15;;;1.02;;
54263;SDS011;40178;53.042;6.406;2023-01-08T14:39:20;4.88;;;0.80;;
54263;SDS011;40178;53.042;6.406;2023-01-08T14:41:55;5.30;;;0.60;;
54263;SDS011;40178;53.042;6.406;2023-01-08T14:44:44;3.42;;;1.48;;
54263;SDS011;40178;53.042;6.406;2023-01-08T14:47:15;4.40;;;0.60;;
54263;SDS011;40178;53.042;6.406;2023-01-08T14:49:46;4.97;;;0.98;;
54263;SDS011;40178;53.042;6.406;2023-01-08T14:52:15;5.68;;;0.90;;
54263;SDS011;40178;53.042;6.406;2023-01-08T14:54:43;3.20;;;0.60;;
54263;SDS011;40178;53.042;6.406;2023-01-08T14:57:10;2.25;;;0.50;;
54263;SDS011;40178;53.042;6.406;2023-01-08T14:59:37;3.33;;;0.50;;
54263;SDS011;40178;53.042;6.406;2023-01-08T15:02:03;2.28;;;0.50;;
54263;SDS011;40178;53.042;6.406;2023-01-08T15:04:31;4.10;;;0.50;;
54263;SDS011;40178;53.042;6.406;2023-01-08T15:09:59;2.13;;;0.60;;
54263;SDS011;40178;53.042;6.406;2023-01-08T15:12:26;3.75;;;0.63;;
54263;SDS011;40178;53.042;6.406;2023-01-08T15:14:54;2.20;;;0.63;;
54263;SDS011;40178;53.042;6.406;2023-01-08T15:17:21;2.15;;;0.45;;
54263;SDS011;40178;53.042;6.406;2023-01-08T15:19:50;5.68;;;0.82;;
54263;SDS011;40178;53.042;6.406;2023-01-08T15:22:19;4.93;;;0.70;;
54263;SDS011;40178;53.042;6.406;2023-01-08T15:24:54;4.97;;;0.85;;
54263;SDS011;40178;53.042;6.406;2023-01-08T15:27:22;2.75;;;0.43;;
54263;SDS011;40178;53.042;6.406;2023-01-08T15:29:49;4.85;;;0.60;;
54263;SDS011;40178;53.042;6.406;2023-01-08T15:32:22;3.45;;;0.75;;
54263;SDS011;40178;53.042;6.406;2023-01-08T15:34:51;7.30;;;0.77;;
54263;SDS011;40178;53.042;6.406;2023-01-08T15:37:17;2.90;;;0.50;;
54263;SDS011;40178;53.042;6.406;2023-01-08T15:39:42;2.22;;;0.50;;
54263;SDS011;40178;53.042;6.406;2023-01-08T15:42:13;4.68;;;0.60;;
54263;SDS011;40178;53.042;6.406;2023-01-08T15:44:58;2.70;;;0.85;;
54263;SDS011;40178;53.042;6.406;2023-01-08T15:47:24;3.75;;;0.70;;
54263;SDS011;40178;53.042;6.406;2023-01-08T15:49:49;4.07;;;0.68;;
54263;SDS011;40178;53.042;6.406;2023-01-08T15:52:16;2.65;;;0.55;;
54263;SDS011;40178;53.042;6.406;2023-01-08T15:54:47;2.55;;;0.60;;
54263;SDS011;40178;53.042;6.406;2023-01-08T15:57:13;2.88;;;0.65;;
54263;SDS011;40178;53.042;6.406;2023-01-08T15:59:39;2.15;;;0.50;;
54263;SDS011;40178;53.042;6.406;2023-01-08T16:02:20;2.95;;;0.90;;
54263;SDS011;40178;53.042;6.406;2023-01-08T16:04:53;3.30;;;0.65;;
54263;SDS011;40178;53.042;6.406;2023-01-08T16:07:21;4.07;;;0.93;;
54263;SDS011;40178;53.042;6.406;2023-01-08T16:09:47;3.65;;;0.75;;
54263;SDS011;40178;53.042;6.406;2023-01-08T16:12:13;3.88;;;0.63;;
54263;SDS011;40178;53.042;6.406;2023-01-08T16:14:38;5.22;;;0.85;;
54263;SDS011;40178;53.042;6.406;2023-01-08T16:17:05;3.92;;;0.70;;
54263;SDS011;40178;53.042;6.406;2023-01-08T16:19:31;5.85;;;0.75;;
54263;SDS011;40178;53.042;6.406;2023-01-08T16:21:57;2.45;;;0.70;;